Time;durP1;ratioP1;P1;durP2;ratioP2;P2;SDS_P1;SDS_P2;PMS_P1;PMS_P2;Temp;Humidity;BMP_temperature;BMP_pressure;BME280_temperature;BME280_humidity;BME280_pressure;Samples;Min_cycle;Max_cycle;Signal;HPM_P1;HPM_P2
2021/08/29 00:01:51;;;;;;;5.88;5.28;;;12.90;99.90;;;;;;6150721;29;20075;-77
2021/08/29 00:04:52;;;;;;;6.00;4.88;;;13.00;99.90;;;;;;6134063;29;20071;-76
2021/08/29 00:07:53;;;;;;;6.68;5.10;;;13.00;99.90;;;;;;6150984;29;20035;-79
2021/08/29 00:10:53;;;;;;;6.50;5.63;;;12.90;99.90;;;;;;6150540;29;20070;-79
2021/08/29 00:13:54;;;;;;;7.88;5.32;;;13.00;99.90;;;;;;6150975;29;20358;-77
2021/08/29 00:16:54;;;;;;;5.95;5.22;;;12.80;99.90;;;;;;6133305;29;20027;-77
2021/08/29 00:19:55;;;;;;;6.22;5.22;;;13.00;99.90;;;;;;6150710;29;20374;-77
2021/08/29 00:22:56;;;;;;;7.07;5.22;;;13.00;99.90;;;;;;6150325;29;20028;-78
2021/08/29 00:25:56;;;;;;;7.45;5.70;;;13.00;99.90;;;;;;6150917;28;20066;-77
2021/08/29 00:28:57;;;;;;;5.55;4.93;;;13.10;99.90;;;;;;6150425;29;20034;-76
2021/08/29 00:31:57;;;;;;;7.93;5.30;;;13.00;99.90;;;;;;6133196;29;20034;-77
2021/08/29 00:34:58;;;;;;;6.35;5.45;;;12.90;99.90;;;;;;6150568;29;20058;-78
2021/08/29 00:37:58;;;;;;;6.72;5.32;;;12.90;99.90;;;;;;6150218;29;20050;-75
2021/08/29 00:40:59;;;;;;;8.50;5.85;;;13.00;99.90;;;;;;6150418;29;20027;-76
2021/08/29 00:44:01;;;;;;;5.85;5.00;;;13.20;99.90;;;;;;6150306;29;20016;-77
2021/08/29 00:47:04;;;;;;;6.47;5.80;;;12.90;99.90;;;;;;6150510;29;20421;-76
2021/08/29 00:50:06;;;;;;;11.32;6.05;;;12.90;99.90;;;;;;6133494;29;20027;-79
2021/08/29 00:53:06;;;;;;;6.43;5.35;;;12.90;99.90;;;;;;6150093;28;20031;-76
2021/08/29 00:56:07;;;;;;;5.68;5.07;;;12.90;99.90;;;;;;6132888;29;20481;-76
2021/08/29 00:59:07;;;;;;;8.60;5.50;;;13.00;99.90;;;;;;6133077;29;20098;-76
2021/08/29 01:02:12;;;;;;;5.88;4.97;;;12.80;99.90;;;;;;6150029;28;20019;-77
2021/08/29 01:05:22;;;;;;;5.72;5.22;;;13.00;99.90;;;;;;6149875;29;20027;-78
2021/08/29 01:08:23;;;;;;;6.38;5.22;;;12.90;99.90;;;;;;6135596;29;20375;-76
2021/08/29 01:11:25;;;;;;;7.53;5.60;;;12.90;99.90;;;;;;6137508;29;20027;-76
2021/08/29 01:14:25;;;;;;;7.33;5.07;;;12.70;99.90;;;;;;6121618;29;20042;-76
2021/08/29 01:17:28;;;;;;;5.88;5.28;;;12.90;99.90;;;;;;6137315;29;20283;-76
2021/08/29 01:20:50;;;;;;;6.38;5.13;;;12.90;99.90;;;;;;6137154;29;20032;-76
2021/08/29 01:23:55;;;;;;;8.60;6.10;;;13.00;99.90;;;;;;6154334;29;20042;-76
2021/08/29 01:27:02;;;;;;;9.32;5.70;;;12.60;99.90;;;;;;6137160;29;20563;-76
2021/08/29 01:30:03;;;;;;;6.43;5.45;;;12.90;99.90;;;;;;6121039;29;20023;-79
2021/08/29 01:33:04;;;;;;;6.15;5.45;;;12.80;99.90;;;;;;6154106;29;20440;-76
2021/08/29 01:36:04;;;;;;;5.35;4.85;;;12.80;99.90;;;;;;6136752;29;20104;-76
2021/08/29 01:39:05;;;;;;;6.03;4.55;;;12.50;99.90;;;;;;6136922;29;20046;-77
2021/08/29 01:42:06;;;;;;;7.60;5.50;;;12.50;99.90;;;;;;6136565;29;20074;-78
2021/08/29 01:45:07;;;;;;;6.70;5.28;;;12.60;99.90;;;;;;6136342;29;20019;-76
2021/08/29 01:48:07;;;;;;;5.80;4.93;;;12.70;99.90;;;;;;6136652;29;20023;-77
2021/08/29 01:51:08;;;;;;;6.70;5.03;;;12.60;99.90;;;;;;6136567;29;20032;-76
2021/08/29 01:54:09;;;;;;;6.82;5.13;;;12.50;99.90;;;;;;6153684;29;20504;-78
2021/08/29 01:57:16;;;;;;;6.53;5.32;;;12.60;99.90;;;;;;6153278;29;20034;-79
2021/08/29 02:00:16;;;;;;;5.30;4.80;;;12.70;99.90;;;;;;6153413;28;20056;-76
2021/08/29 02:03:17;;;;;;;5.40;4.90;;;12.60;99.90;;;;;;6136032;29;20465;-79
2021/08/29 02:06:28;;;;;;;5.85;5.00;;;12.80;99.90;;;;;;6136084;29;20045;-76
2021/08/29 02:09:28;;;;;;;8.05;5.68;;;12.70;99.90;;;;;;6136147;29;20458;-76
2021/08/29 02:12:31;;;;;;;6.75;5.05;;;12.50;99.90;;;;;;6135921;29;20031;-76
2021/08/29 02:15:38;;;;;;;6.90;4.95;;;12.50;99.90;;;;;;6135892;29;20043;-79
2021/08/29 02:18:39;;;;;;;5.53;4.95;;;12.80;99.90;;;;;;6136242;29;20409;-76
2021/08/29 02:21:40;;;;;;;5.75;4.82;;;12.70;99.90;;;;;;6135032;29;20034;-78
2021/08/29 02:24:40;;;;;;;5.50;5.00;;;12.70;99.90;;;;;;6119698;29;20035;-76
2021/08/29 02:27:41;;;;;;;8.98;5.68;;;12.70;99.90;;;;;;6135385;29;20047;-79
2021/08/29 02:30:42;;;;;;;6.70;5.65;;;12.70;99.90;;;;;;6135700;29;20032;-76
2021/08/29 02:33:42;;;;;;;5.93;5.15;;;12.90;99.90;;;;;;6152813;29;20447;-76
2021/08/29 02:36:43;;;;;;;7.55;5.50;;;12.60;99.90;;;;;;6135488;29;20670;-79
2021/08/29 02:39:44;;;;;;;6.50;5.35;;;12.60;99.90;;;;;;6135502;29;20042;-76
2021/08/29 02:42:45;;;;;;;8.60;5.60;;;;;;;;;;6152493;29;20062;-80
2021/08/29 02:45:46;;;;;;;5.95;5.35;;;12.40;99.90;;;;;;6152472;28;20039;-76
2021/08/29 02:48:46;;;;;;;6.32;4.90;;;12.40;99.90;;;;;;6134855;29;20039;-76
2021/08/29 02:51:51;;;;;;;6.03;5.35;;;12.40;99.90;;;;;;6134918;29;20430;-78
2021/08/29 02:54:51;;;;;;;8.43;5.22;;;12.50;99.90;;;;;;6134778;29;20369;-77
2021/08/29 02:58:01;;;;;;;8.70;5.22;;;12.50;99.90;;;;;;6135004;28;20019;-76
2021/08/29 03:01:02;;;;;;;6.00;5.35;;;12.20;99.90;;;;;;6135013;29;20759;-76
2021/08/29 03:04:03;;;;;;;7.40;5.03;;;12.10;99.90;;;;;;6134784;28;20054;-76
2021/08/29 03:07:04;;;;;;;8.38;5.40;;;12.10;99.90;;;;;;6152121;29;20035;-74
2021/08/29 03:10:05;;;;;;;7.05;5.18;;;12.50;99.90;;;;;;6151696;29;20027;-75
2021/08/29 03:13:06;;;;;;;6.28;4.95;;;11.10;99.90;;;;;;6151901;29;20074;-76
2021/08/29 03:16:06;;;;;;;6.40;5.18;;;12.40;99.90;;;;;;6134436;29;20049;-78
2021/08/29 03:19:07;;;;;;;5.90;4.70;;;12.30;99.90;;;;;;6151811;29;20031;-80
2021/08/29 03:22:08;;;;;;;5.63;4.90;;;12.20;99.90;;;;;;6134678;29;20031;-80
2021/08/29 03:25:09;;;;;;;5.32;4.82;;;12.30;99.90;;;;;;6151669;29;20036;-76
2021/08/29 03:28:10;;;;;;;6.75;5.65;;;12.20;99.90;;;;;;6134412;29;20062;-79
2021/08/29 03:31:11;;;;;;;7.35;5.28;;;;;;;;;;6150828;28;20373;-76
2021/08/29 03:34:13;;;;;;;8.10;5.55;;;12.10;99.90;;;;;;6151021;29;20019;-76
2021/08/29 03:37:13;;;;;;;8.52;5.75;;;12.10;99.90;;;;;;6151414;29;20365;-77
2021/08/29 03:40:14;;;;;;;6.68;5.97;;;12.50;99.90;;;;;;6151145;29;20031;-79
2021/08/29 03:43:15;;;;;;;6.65;5.70;;;12.30;99.90;;;;;;6133681;29;20031;-76
2021/08/29 03:46:16;;;;;;;7.35;5.63;;;12.30;99.90;;;;;;6134115;29;20039;-79
2021/08/29 03:49:16;;;;;;;7.07;5.43;;;12.30;99.90;;;;;;6150937;29;20023;-77
2021/08/29 03:52:20;;;;;;;6.32;5.50;;;12.20;99.90;;;;;;6150949;28;20023;-76
2021/08/29 03:55:20;;;;;;;6.78;5.65;;;11.50;99.90;;;;;;6151159;28;20028;-78
2021/08/29 03:58:21;;;;;;;7.72;5.82;;;12.40;99.90;;;;;;6133675;29;20023;-78
2021/08/29 04:01:22;;;;;;;6.68;6.07;;;12.20;99.90;;;;;;6133747;29;20035;-79
2021/08/29 04:04:22;;;;;;;6.95;5.80;;;12.20;99.90;;;;;;6133693;29;20083;-76
2021/08/29 04:07:23;;;;;;;6.20;5.60;;;12.20;99.90;;;;;;6150801;28;20043;-77
2021/08/29 04:10:23;;;;;;;6.25;5.63;;;12.30;99.90;;;;;;6150678;29;20470;-79
2021/08/29 04:13:25;;;;;;;5.85;5.25;;;12.40;99.90;;;;;;6133862;29;20408;-76
2021/08/29 04:16:26;;;;;;;7.17;5.60;;;12.20;99.90;;;;;;6134193;29;20034;-76
2021/08/29 04:19:27;;;;;;;6.50;5.80;;;12.40;99.90;;;;;;6150584;28;20031;-77
2021/08/29 04:22:27;;;;;;;8.13;5.30;;;12.50;99.90;;;;;;6133788;28;20406;-79
2021/08/29 04:25:29;;;;;;;5.95;5.32;;;12.50;99.90;;;;;;6150673;29;20035;-77
2021/08/29 04:28:29;;;;;;;6.03;5.25;;;12.50;99.90;;;;;;6150786;28;20027;-78
2021/08/29 04:31:31;;;;;;;6.10;5.50;;;12.60;99.90;;;;;;6150762;28;20038;-76
2021/08/29 04:34:32;;;;;;;5.97;5.45;;;12.70;99.90;;;;;;6133990;29;20410;-79
2021/08/29 04:37:32;;;;;;;7.18;5.57;;;12.60;99.90;;;;;;6133249;28;20027;-79
2021/08/29 04:40:33;;;;;;;7.22;5.72;;;12.50;99.90;;;;;;6133321;29;20366;-77
2021/08/29 04:43:35;;;;;;;5.43;4.93;;;12.60;99.90;;;;;;6134961;28;20434;-75
2021/08/29 04:46:35;;;;;;;7.45;5.65;;;13.30;99.90;;;;;;6140999;28;20305;-76
2021/08/29 04:49:36;;;;;;;6.35;5.43;;;12.50;99.90;;;;;;6179224;28;20023;-78
2021/08/29 04:52:36;;;;;;;6.18;5.57;;;12.60;99.90;;;;;;6179044;28;20025;-76
2021/08/29 04:55:37;;;;;;;7.13;6.38;;;;;;;;;;6161392;28;20035;-76
2021/08/29 04:58:38;;;;;;;7.15;6.28;;;12.50;99.90;;;;;;6178917;28;20513;-78
2021/08/29 05:01:39;;;;;;;6.90;6.20;;;12.40;99.90;;;;;;6179261;28;20031;-76
2021/08/29 05:04:39;;;;;;;7.22;6.25;;;12.40;99.90;;;;;;6178287;28;20173;-76
2021/08/29 05:07:40;;;;;;;7.82;6.30;;;12.30;99.90;;;;;;6177972;28;20046;-76
2021/08/29 05:10:40;;;;;;;7.70;6.40;;;12.50;99.90;;;;;;6178174;28;20078;-76
2021/08/29 05:13:41;;;;;;;7.72;6.28;;;12.70;99.90;;;;;;6161063;28;20065;-76
2021/08/29 05:16:41;;;;;;;6.75;6.05;;;12.30;99.90;;;;;;6177545;28;20445;-76
2021/08/29 05:19:42;;;;;;;6.72;5.60;;;12.40;99.90;;;;;;6178373;28;20093;-80
2021/08/29 05:22:42;;;;;;;9.13;5.97;;;12.60;99.90;;;;;;6160437;28;20038;-77
2021/08/29 05:25:43;;;;;;;7.10;6.40;;;12.50;99.90;;;;;;6178284;28;20035;-77
2021/08/29 05:28:44;;;;;;;6.70;5.97;;;12.70;99.90;;;;;;6160338;28;20039;-80
2021/08/29 05:31:44;;;;;;;7.32;6.47;;;12.70;99.90;;;;;;6178184;28;20026;-77
2021/08/29 05:34:45;;;;;;;6.90;6.20;;;12.80;99.90;;;;;;6177717;28;20035;-79
2021/08/29 05:37:45;;;;;;;6.85;6.15;;;13.00;99.90;;;;;;6177507;28;20110;-77
2021/08/29 05:40:46;;;;;;;6.68;6.05;;;12.80;99.90;;;;;;6178364;28;20050;-79
2021/08/29 05:43:46;;;;;;;7.53;6.75;;;12.70;99.90;;;;;;6177782;28;20029;-80
2021/08/29 05:46:47;;;;;;;6.68;5.97;;;12.90;99.90;;;;;;6177582;28;20034;-76
2021/08/29 05:49:48;;;;;;;7.68;6.80;;;12.80;99.90;;;;;;6177586;28;20018;-77
2021/08/29 05:52:49;;;;;;;9.65;6.28;;;12.90;99.90;;;;;;6177471;28;20031;-81
2021/08/29 05:55:49;;;;;;;8.13;6.72;;;13.10;99.90;;;;;;6159534;28;20105;-82
2021/08/29 05:58:50;;;;;;;6.40;5.68;;;13.30;99.90;;;;;;6160031;28;20023;-81
2021/08/29 06:04:12;;;;;;;9.40;6.22;;;13.00;99.90;;;;;;6294815;27;20389;-79
2021/08/29 06:07:13;;;;;;;7.05;6.13;;;13.10;99.90;;;;;;6275847;28;20087;-83
2021/08/29 06:10:13;;;;;;;7.68;5.95;;;13.20;99.90;;;;;;6276077;28;20020;-81
2021/08/29 06:13:14;;;;;;;6.95;6.15;;;13.10;99.90;;;;;;6276195;28;20025;-81
2021/08/29 06:16:14;;;;;;;8.05;6.30;;;13.10;99.90;;;;;;6276165;28;20503;-86
2021/08/29 06:19:15;;;;;;;7.05;6.43;;;13.10;99.90;;;;;;6275732;28;20033;-81
2021/08/29 06:22:15;;;;;;;6.63;5.60;;;13.10;99.90;;;;;;6293701;28;20086;-82
2021/08/29 06:25:16;;;;;;;6.25;5.32;;;13.10;99.90;;;;;;6275508;28;20063;-84
2021/08/29 06:28:17;;;;;;;6.35;5.65;;;13.10;99.90;;;;;;6275705;28;20029;-81
2021/08/29 06:31:17;;;;;;;6.15;5.65;;;13.20;99.90;;;;;;6275256;28;20374;-81
2021/08/29 06:34:18;;;;;;;7.53;6.82;;;13.20;99.90;;;;;;6275734;28;20443;-82
2021/08/29 06:37:18;;;;;;;7.22;6.53;;;13.20;99.90;;;;;;6275345;28;20028;-81
2021/08/29 06:40:19;;;;;;;6.90;6.20;;;13.10;99.90;;;;;;6277135;28;20055;-82
2021/08/29 06:43:20;;;;;;;8.65;5.95;;;13.20;99.90;;;;;;6275170;28;20094;-84
2021/08/29 06:46:20;;;;;;;6.72;6.03;;;13.10;99.90;;;;;;6275267;28;20053;-81
2021/08/29 06:49:21;;;;;;;6.00;5.40;;;13.20;99.90;;;;;;6258692;28;20021;-83
2021/08/29 06:52:22;;;;;;;5.95;5.35;;;13.20;99.90;;;;;;6274740;28;20024;-81
2021/08/29 06:55:23;;;;;;;6.47;5.88;;;13.20;99.90;;;;;;6275137;28;20074;-81
2021/08/29 06:58:24;;;;;;;24.17;17.00;;;13.30;99.90;;;;;;6275023;28;20467;-81
2021/08/29 07:01:24;;;;;;;86.82;53.00;;;13.20;99.90;;;;;;6274600;28;20028;-80
2021/08/29 07:04:25;;;;;;;20.90;15.48;;;13.30;99.90;;;;;;6258283;28;20070;-81
2021/08/29 07:07:25;;;;;;;6.50;5.70;;;13.20;99.90;;;;;;6274559;28;20031;-82
2021/08/29 07:10:26;;;;;;;7.40;6.55;;;13.20;99.90;;;;;;6292770;28;20032;-82
2021/08/29 07:13:26;;;;;;;10.18;7.78;;;13.30;99.90;;;;;;6270209;28;20454;-81
2021/08/29 07:16:27;;;;;;;11.40;7.68;;;13.40;99.90;;;;;;6276269;28;20020;-82
2021/08/29 07:19:27;;;;;;;11.80;7.07;;;13.40;99.90;;;;;;6276443;28;20047;-80
2021/08/29 07:22:28;;;;;;;6.68;5.30;;;13.40;99.90;;;;;;6257884;28;20037;-80
2021/08/29 07:25:29;;;;;;;8.23;5.85;;;13.40;99.90;;;;;;6258004;28;20024;-80
2021/08/29 07:28:29;;;;;;;18.88;11.60;;;13.40;99.90;;;;;;6241131;28;20025;-81
2021/08/29 07:31:30;;;;;;;10.90;7.72;;;13.40;99.90;;;;;;6275764;28;20047;-80
2021/08/29 07:34:31;;;;;;;7.38;6.10;;;13.40;99.90;;;;;;6257846;28;20017;-81
2021/08/29 07:37:31;;;;;;;8.52;7.38;;;13.30;99.90;;;;;;6241430;28;20029;-81
2021/08/29 07:40:32;;;;;;;7.28;6.43;;;13.40;99.90;;;;;;6257500;28;20384;-84
2021/08/29 07:43:33;;;;;;;7.13;6.43;;;13.40;99.90;;;;;;6241007;28;20041;-85
2021/08/29 07:46:33;;;;;;;15.10;9.40;;;13.40;99.90;;;;;;6257373;28;20028;-85
2021/08/29 07:49:34;;;;;;;6.55;5.72;;;13.40;99.90;;;;;;6257451;28;20455;-83
2021/08/29 07:52:35;;;;;;;7.30;6.53;;;13.40;99.90;;;;;;6240934;28;20070;-81
2021/08/29 07:55:35;;;;;;;8.88;6.60;;;13.40;99.90;;;;;;6257446;28;20051;-82
2021/08/29 07:58:36;;;;;;;6.72;5.80;;;13.40;99.90;;;;;;6257814;28;20436;-80
2021/08/29 08:01:36;;;;;;;7.95;7.15;;;13.40;99.90;;;;;;6256527;28;20414;-80
2021/08/29 08:04:37;;;;;;;8.20;7.40;;;13.40;99.90;;;;;;6238863;28;20052;-80
2021/08/29 08:07:38;;;;;;;9.65;8.50;;;13.40;99.90;;;;;;6239529;28;20045;-82
2021/08/29 08:10:38;;;;;;;10.07;8.82;;;13.40;99.90;;;;;;6232441;28;20104;-83
2021/08/29 08:13:39;;;;;;;11.10;10.00;;;13.40;99.90;;;;;;6237171;28;20078;-79
2021/08/29 08:16:40;;;;;;;10.60;9.50;;;13.40;99.90;;;;;;6223825;28;20017;-80
2021/08/29 08:19:40;;;;;;;10.80;9.55;;;13.50;99.90;;;;;;6223498;28;20109;-80
2021/08/29 08:22:41;;;;;;;10.52;9.40;;;13.50;99.90;;;;;;6206236;28;20082;-81
2021/08/29 08:25:42;;;;;;;10.90;9.80;;;13.60;99.90;;;;;;6235732;28;20026;-80
2021/08/29 08:28:42;;;;;;;11.50;10.27;;;13.70;99.90;;;;;;6231979;28;20028;-83
2021/08/29 08:31:43;;;;;;;11.73;10.13;;;13.70;99.90;;;;;;6215606;28;20371;-81
2021/08/29 08:34:44;;;;;;;12.40;11.10;;;13.70;99.90;;;;;;6215485;28;20021;-82
2021/08/29 08:37:47;;;;;;;11.77;10.57;;;13.70;99.90;;;;;;6198590;28;20071;-83
2021/08/29 08:40:47;;;;;;;12.88;11.48;;;13.80;99.90;;;;;;6215116;28;20031;-81
2021/08/29 08:43:48;;;;;;;11.93;10.23;;;13.80;99.90;;;;;;6199058;28;20033;-82
2021/08/29 08:46:48;;;;;;;13.15;11.85;;;14.00;99.90;;;;;;6199730;28;20029;-87
2021/08/29 08:49:51;;;;;;;11.05;9.88;;;13.90;99.90;;;;;;6190956;28;20116;-83
2021/08/29 08:52:51;;;;;;;9.77;8.77;;;14.00;99.90;;;;;;6210779;28;20029;-83
2021/08/29 08:55:52;;;;;;;10.30;8.82;;;14.00;99.90;;;;;;6220628;28;20034;-82
2021/08/29 08:58:56;;;;;;;9.57;8.57;;;13.90;99.90;;;;;;6177898;28;20072;-84
2021/08/29 09:01:58;;;;;;;10.05;9.05;;;13.90;99.90;;;;;;6231460;28;20048;-84
2021/08/29 09:04:59;;;;;;;26.88;17.08;;;13.90;99.90;;;;;;6215174;28;20460;-84
2021/08/29 09:08:00;;;;;;;49.53;23.92;;;13.90;99.90;;;;;;6230917;28;20045;-85
2021/08/29 09:11:00;;;;;;;25.33;14.30;;;13.90;99.90;;;;;;6221956;28;20100;-81
2021/08/29 09:14:01;;;;;;;12.77;10.45;;;13.90;99.90;;;;;;6227375;28;20447;-83
2021/08/29 09:17:02;;;;;;;10.00;8.63;;;;;;;;;;6217161;28;20072;-88
2021/08/29 09:20:24;;;;;;;9.90;8.90;;;14.00;99.90;;;;;;6208942;28;20456;-83
2021/08/29 09:23:25;;;;;;;11.73;10.25;;;14.00;99.90;;;;;;6231471;28;20103;-85
2021/08/29 09:26:27;;;;;;;12.75;10.57;;;14.10;99.90;;;;;;6230353;28;20033;-83
2021/08/29 09:29:27;;;;;;;13.18;10.70;;;14.20;99.90;;;;;;6216444;28;20024;-89
2021/08/29 09:32:28;;;;;;;10.90;9.20;;;14.20;99.90;;;;;;6217725;28;20030;-88
2021/08/29 09:35:34;;;;;;;9.65;8.30;;;14.30;99.90;;;;;;6207994;28;20040;-85
2021/08/29 09:38:39;;;;;;;9.32;7.97;;;14.30;99.90;;;;;;6190140;28;20072;-85
2021/08/29 09:41:40;;;;;;;8.63;7.72;;;14.40;99.90;;;;;;6215601;28;20061;-84
2021/08/29 09:44:40;;;;;;;8.63;7.03;;;14.40;99.90;;;;;;6224812;28;20067;-84
2021/08/29 09:47:42;;;;;;;9.55;7.13;;;15.20;99.90;;;;;;6227934;28;20020;-84
2021/08/29 09:50:45;;;;;;;7.80;7.00;;;14.40;99.90;;;;;;6211216;28;20052;-86
2021/08/29 09:53:46;;;;;;;;;;;14.40;99.90;;;;;;6195931;28;20481;-92
2021/08/29 09:56:50;;;;;;;9.40;8.40;;;14.40;99.90;;;;;;6222181;28;20348;-83
2021/08/29 09:59:51;;;;;;;10.45;9.05;;;14.40;99.90;;;;;;6187807;28;20029;-84
2021/08/29 10:03:05;;;;;;;12.30;10.77;;;14.50;99.90;;;;;;6208714;28;20041;-86
2021/08/29 10:06:18;;;;;;;12.30;10.75;;;14.60;99.90;;;;;;6215251;28;20037;-85
2021/08/29 10:09:27;;;;;;;10.57;9.30;;;14.70;99.90;;;;;;6226544;28;20426;-89
2021/08/29 10:12:28;;;;;;;10.95;8.93;;;14.80;99.90;;;;;;6211925;28;20033;-84
2021/08/29 10:15:29;;;;;;;10.32;9.23;;;14.80;99.90;;;;;;6229937;28;20021;-89
2021/08/29 10:18:31;;;;;;;11.25;9.48;;;14.90;99.90;;;;;;6215783;28;20411;-86
2021/08/29 10:21:31;;;;;;;11.27;8.95;;;14.90;99.90;;;;;;6214380;28;20018;-86
2021/08/29 10:24:33;;;;;;;9.73;8.65;;;14.80;99.90;;;;;;6213748;28;20032;-86
2021/08/29 10:27:34;;;;;;;9.27;8.30;;;14.80;99.90;;;;;;6222531;28;20128;-88
2021/08/29 10:30:35;;;;;;;9.07;7.75;;;;;;;;;;6218416;28;20026;-87
2021/08/29 10:33:36;;;;;;;8.77;7.88;;;14.70;99.90;;;;;;6224149;28;20048;-87
2021/08/29 10:36:37;;;;;;;9.25;7.80;;;14.70;99.90;;;;;;6241296;28;20718;-88
2021/08/29 10:39:38;;;;;;;7.10;6.25;;;;;;;;;;6219437;28;20178;-87
2021/08/29 10:42:43;;;;;;;8.75;7.85;;;14.80;99.90;;;;;;6213646;28;20540;-90
2021/08/29 10:45:44;;;;;;;8.13;7.15;;;14.80;99.90;;;;;;6221634;28;20551;-87
2021/08/29 10:48:46;;;;;;;8.73;7.82;;;14.80;99.90;;;;;;6200272;28;20021;-89
2021/08/29 10:51:46;;;;;;;9.70;8.13;;;14.90;99.90;;;;;;6222361;28;20064;-89
2021/08/29 10:54:51;;;;;;;8.00;7.18;;;15.00;99.90;;;;;;6225233;28;20375;-89
2021/08/29 10:57:52;;;;;;;8.90;7.38;;;15.00;99.90;;;;;;6201204;28;20037;-86
2021/08/29 11:00:53;;;;;;;7.68;6.93;;;15.30;99.90;;;;;;6212651;28;20080;-87
2021/08/29 11:03:54;;;;;;;8.18;7.15;;;;;;;;;;6237095;28;20483;-84
2021/08/29 11:06:56;;;;;;;5.40;4.60;;;15.40;99.90;;;;;;6260615;28;20348;-84
2021/08/29 11:09:57;;;;;;;;;;;15.40;99.90;;;;;;6262102;28;20438;-83
2021/08/29 11:12:57;;;;;;;6.30;5.70;;;15.40;99.90;;;;;;6256512;28;19908;-87
2021/08/29 11:16:15;;;;;;;7.18;6.45;;;15.50;99.90;;;;;;6240825;28;20416;-86
2021/08/29 11:19:17;;;;;;;5.80;5.15;;;15.50;99.90;;;;;;6262072;28;20021;-85
2021/08/29 11:22:25;;;;;;;4.90;4.03;;;15.50;99.90;;;;;;6240478;28;20033;-84
2021/08/29 11:25:25;;;;;;;5.38;3.88;;;15.60;99.90;;;;;;6255426;28;20035;-86
2021/08/29 11:28:31;;;;;;;4.13;3.72;;;15.60;99.90;;;;;;6240688;28;20025;-85
2021/08/29 11:31:48;;;;;;;3.40;3.10;;;15.60;99.90;;;;;;6244622;28;20029;-86
2021/08/29 11:35:07;;;;;;;3.65;3.30;;;15.90;99.90;;;;;;6215749;28;20029;-85
2021/08/29 11:38:35;;;;;;;3.60;3.30;;;15.70;99.90;;;;;;6233026;28;20065;-86
2021/08/29 11:41:36;;;;;;;4.30;2.92;;;15.90;99.90;;;;;;6237660;28;20501;-86
2021/08/29 11:44:37;;;;;;;3.30;2.97;;;;;;;;;;6246664;28;20119;-85
2021/08/29 11:47:39;;;;;;;4.88;3.08;;;15.80;99.90;;;;;;6240191;28;20025;-85
2021/08/29 11:50:40;;;;;;;3.40;3.10;;;15.90;99.90;;;;;;6240822;28;20025;-85
2021/08/29 11:53:48;;;;;;;3.60;3.30;;;13.70;99.90;;;;;;6241053;28;20032;-85
2021/08/29 11:56:48;;;;;;;3.33;3.03;;;15.90;99.90;;;;;;6232833;28;20065;-85
2021/08/29 11:59:49;;;;;;;4.00;3.55;;;16.00;99.90;;;;;;6216306;28;20045;-85
2021/08/29 12:02:54;;;;;;;3.65;3.20;;;16.10;99.90;;;;;;6215575;28;20030;-86
2021/08/29 12:06:00;;;;;;;3.03;2.72;;;16.10;99.90;;;;;;6216030;28;20059;-85
2021/08/29 12:09:27;;;;;;;3.53;3.20;;;16.20;99.90;;;;;;6232564;28;20029;-84
2021/08/29 12:12:27;;;;;;;3.80;3.17;;;16.40;99.90;;;;;;6213858;28;20067;-86
2021/08/29 12:15:28;;;;;;;5.38;3.40;;;16.40;99.90;;;;;;6215986;28;20427;-84
2021/08/29 12:18:38;;;;;;;4.82;4.18;;;16.20;99.90;;;;;;6216024;28;20032;-84
2021/08/29 12:21:43;;;;;;;5.53;5.00;;;16.30;99.90;;;;;;6215071;28;20646;-85
2021/08/29 12:24:44;;;;;;;6.43;5.15;;;16.10;99.90;;;;;;6232326;28;20455;-85
2021/08/29 12:27:46;;;;;;;7.00;5.85;;;16.00;99.90;;;;;;6232248;28;20063;-85
2021/08/29 12:30:52;;;;;;;6.53;5.85;;;16.40;99.90;;;;;;6215702;28;20022;-85
2021/08/29 12:33:53;;;;;;;6.20;5.60;;;16.10;99.90;;;;;;6232071;28;20044;-84
2021/08/29 12:37:04;;;;;;;5.97;5.20;;;16.00;99.90;;;;;;6215158;28;20420;-87
2021/08/29 12:40:09;;;;;;;6.63;5.82;;;15.90;99.90;;;;;;6236156;28;20144;-87
2021/08/29 12:43:10;;;;;;;7.18;6.22;;;15.90;99.90;;;;;;6240264;28;20048;-87
2021/08/29 12:46:11;;;;;;;8.30;6.30;;;15.90;99.90;;;;;;6231133;28;20458;-85
2021/08/29 12:49:11;;;;;;;6.65;5.93;;;16.10;99.90;;;;;;6257793;28;20024;-82
2021/08/29 12:52:21;;;;;;;6.65;5.47;;;16.30;99.90;;;;;;6235519;28;20025;-85
2021/08/29 12:55:23;;;;;;;7.47;5.72;;;16.50;99.90;;;;;;6243205;28;20463;-88
2021/08/29 12:58:31;;;;;;;6.85;6.15;;;16.60;99.90;;;;;;6249680;28;20013;-85
2021/08/29 13:01:32;;;;;;;6.00;5.40;;;16.90;99.90;;;;;;6253563;28;20036;-88
2021/08/29 13:04:33;;;;;;;5.85;5.22;;;;;;;;;;6234560;28;20035;-85
2021/08/29 13:07:55;;;;;;;5.13;4.63;;;16.90;99.90;;;;;;6234731;28;20456;-85
2021/08/29 13:11:09;;;;;;;5.22;4.72;;;17.20;99.90;;;;;;6224633;28;20053;-85
2021/08/29 13:14:09;;;;;;;5.38;4.88;;;17.00;99.90;;;;;;6223763;28;20032;-85
2021/08/29 13:17:14;;;;;;;5.70;4.72;;;17.00;99.90;;;;;;6242437;28;20025;-84
2021/08/29 13:20:15;;;;;;;6.22;5.30;;;16.90;99.90;;;;;;6217083;28;20021;-86
2021/08/29 13:23:34;;;;;;;6.88;5.18;;;16.70;99.90;;;;;;6197697;28;20041;-85
2021/08/29 13:26:35;;;;;;;4.88;4.38;;;16.60;99.90;;;;;;6219474;28;20451;-87
2021/08/29 13:29:39;;;;;;;5.38;4.70;;;16.40;99.90;;;;;;6212392;28;20025;-88
2021/08/29 13:32:41;;;;;;;5.85;5.25;;;16.30;99.90;;;;;;6196464;28;20030;-90
2021/08/29 13:35:42;;;;;;;6.72;5.32;;;16.20;99.90;;;;;;6216299;28;20072;-88
2021/08/29 13:38:43;;;;;;;5.95;5.35;;;16.20;99.90;;;;;;6228603;28;20041;-88
2021/08/29 13:41:44;;;;;;;5.88;5.28;;;16.30;99.90;;;;;;6206427;28;20018;-85
2021/08/29 13:44:49;;;;;;;7.13;5.78;;;16.10;99.90;;;;;;6206372;28;20036;-86
2021/08/29 13:47:50;;;;;;;6.18;5.47;;;16.00;99.90;;;;;;6226157;28;20018;-86
2021/08/29 13:50:51;;;;;;;6.43;5.40;;;15.80;99.90;;;;;;6212934;28;20021;-86
2021/08/29 13:53:52;;;;;;;6.32;5.50;;;15.80;99.90;;;;;;6184572;28;20032;-85
2021/08/29 13:56:53;;;;;;;6.30;5.60;;;15.80;99.90;;;;;;6214544;28;20022;-87
2021/08/29 13:59:53;;;;;;;6.57;5.82;;;15.80;99.90;;;;;;6230821;28;20071;-84
2021/08/29 14:02:54;;;;;;;6.15;5.55;;;15.90;99.90;;;;;;6214019;28;20037;-88
2021/08/29 14:05:55;;;;;;;7.18;5.55;;;15.90;99.90;;;;;;6215641;28;20033;-86
2021/08/29 14:08:55;;;;;;;6.25;5.50;;;15.90;99.90;;;;;;6238346;28;20129;-88
2021/08/29 14:11:56;;;;;;;6.07;5.20;;;15.80;99.90;;;;;;6253977;28;20025;-87
2021/08/29 14:15:00;;;;;;;5.85;5.10;;;15.70;99.90;;;;;;6236946;28;20021;-90
2021/08/29 14:18:16;;;;;;;7.40;5.78;;;15.70;99.90;;;;;;6264610;28;20024;-87
2021/08/29 14:35:31;;;;;;;6.28;5.03;;;16.10;99.90;;;;;;7476141;23;20191;-84
2021/08/29 14:38:32;;;;;;;8.82;5.55;;;16.00;99.90;;;;;;6193233;28;20468;-79
2021/08/29 14:41:33;;;;;;;6.22;5.55;;;16.30;99.90;;;;;;6209159;28;20049;-79
2021/08/29 14:44:33;;;;;;;6.15;5.45;;;16.00;99.90;;;;;;6227610;28;20498;-79
2021/08/29 14:47:34;;;;;;;5.22;4.72;;;16.10;99.90;;;;;;6209879;28;20022;-79
2021/08/29 14:50:34;;;;;;;5.55;5.05;;;16.50;99.90;;;;;;6227410;28;20025;-79
2021/08/29 14:53:35;;;;;;;5.93;5.07;;;16.30;99.90;;;;;;6209374;28;20022;-78
2021/08/29 14:56:36;;;;;;;5.68;4.78;;;16.30;99.90;;;;;;6210095;28;20384;-79
2021/08/29 14:59:44;;;;;;;6.20;4.85;;;16.40;99.90;;;;;;6194440;28;20018;-79
2021/08/29 15:02:45;;;;;;;5.45;4.95;;;16.50;99.90;;;;;;6210794;28;20037;-78
2021/08/29 15:05:46;;;;;;;5.75;5.15;;;16.50;99.90;;;;;;6209602;28;20018;-78
2021/08/29 15:08:46;;;;;;;5.65;4.70;;;16.40;99.90;;;;;;6227231;28;20028;-79
2021/08/29 15:11:47;;;;;;;5.53;4.40;;;16.50;99.90;;;;;;6209703;28;20088;-79
2021/08/29 15:14:47;;;;;;;7.68;5.68;;;16.40;99.90;;;;;;6225566;28;20030;-78
2021/08/29 15:17:48;;;;;;;6.10;5.50;;;16.40;99.90;;;;;;6208547;28;20116;-79
2021/08/29 15:20:49;;;;;;;5.50;5.00;;;16.30;99.90;;;;;;6226766;28;20372;-79
2021/08/29 15:23:49;;;;;;;8.30;5.18;;;16.20;99.90;;;;;;6209178;28;20038;-78
2021/08/29 15:26:51;;;;;;;6.63;4.72;;;16.10;99.90;;;;;;6208822;28;20345;-79
2021/08/29 15:29:52;;;;;;;6.18;5.57;;;15.90;99.90;;;;;;6192591;28;20411;-80
2021/08/29 15:32:53;;;;;;;6.53;5.65;;;15.90;99.90;;;;;;6209552;28;20037;-79
2021/08/29 15:35:54;;;;;;;6.30;5.40;;;15.80;99.90;;;;;;6199287;28;20584;-79
2021/08/29 15:38:54;;;;;;;7.05;5.45;;;15.20;99.90;;;;;;6167695;28;20031;-79
2021/08/29 15:41:55;;;;;;;6.63;5.93;;;15.60;99.90;;;;;;6168137;28;20030;-79
2021/08/29 15:44:56;;;;;;;5.57;5.03;;;15.60;99.90;;;;;;6184636;28;20045;-79
2021/08/29 15:47:57;;;;;;;6.05;5.18;;;15.60;99.90;;;;;;6202119;28;20030;-79
2021/08/29 15:50:58;;;;;;;7.18;5.65;;;15.60;99.90;;;;;;6152352;28;20040;-78
2021/08/29 15:54:00;;;;;;;6.95;6.25;;;15.50;99.90;;;;;;6184237;28;20018;-79
2021/08/29 15:57:01;;;;;;;6.53;5.82;;;15.40;99.90;;;;;;6168424;28;20018;-78
2021/08/29 16:00:01;;;;;;;6.97;6.28;;;15.40;99.90;;;;;;6184087;28;20519;-78
2021/08/29 16:03:02;;;;;;;6.78;6.07;;;15.40;99.90;;;;;;6167673;28;20041;-78
2021/08/29 16:06:03;;;;;;;6.85;6.10;;;15.40;99.90;;;;;;6184003;28;20058;-79